Time;durP1;ratioP1;P1;durP2;ratioP2;P2;SDS_P1;SDS_P2;PMS_P1;PMS_P2;Temp;Humidity;BMP_temperature;BMP_pressure;BME280_temperature;BME280_humidity;BME280_pressure;Samples;Min_cycle;Max_cycle;Signal;HPM_P1;HPM_P2
2022/06/18 00:00:57;;;;;;;2.20;2.00;;;15.70;1.00;;;;;;5025648;28;20700;-88
2022/06/18 00:03:25;;;;;;;2.70;2.03;;;15.60;1.00;;;;;;5025918;28;20890;-88
2022/06/18 00:05:53;;;;;;;2.35;2.10;;;15.60;1.00;;;;;;5024939;28;20179;-87
2022/06/18 00:08:22;;;;;;;3.47;2.10;;;15.50;1.00;;;;;;5026027;28;20179;-87
2022/06/18 00:10:53;;;;;;;3.95;2.30;;;15.40;1.00;;;;;;5026253;28;20278;-87
2022/06/18 00:13:41;;;;;;;2.40;2.20;;;15.40;1.00;;;;;;5025014;28;20187;-87
2022/06/18 00:16:18;;;;;;;2.80;2.53;;;15.30;1.00;;;;;;5024949;28;20175;-87
2022/06/18 00:18:43;;;;;;;2.63;2.22;;;15.30;1.00;;;;;;5017413;28;20244;-87
2022/06/18 00:21:15;;;;;;;2.50;2.30;;;15.20;1.00;;;;;;5025895;28;20605;-87
2022/06/18 00:23:41;;;;;;;2.60;2.40;;;15.20;1.00;;;;;;5017693;28;20182;-87
2022/06/18 00:26:08;;;;;;;3.42;2.58;;;15.10;1.00;;;;;;5018008;28;20202;-87
2022/06/18 00:28:33;;;;;;;2.63;2.30;;;15.10;1.00;;;;;;5025130;28;20190;-87
2022/06/18 00:30:59;;;;;;;2.33;2.13;;;15.00;1.00;;;;;;5026378;28;20209;-87
2022/06/18 00:33:26;;;;;;;2.65;2.40;;;15.00;1.00;;;;;;5025263;28;20265;-87
2022/06/18 00:35:56;;;;;;;2.40;2.20;;;14.90;1.00;;;;;;5041374;28;20179;-87
2022/06/18 00:38:26;;;;;;;2.70;2.50;;;14.90;1.00;;;;;;5024643;28;20182;-87
2022/06/18 00:40:53;;;;;;;2.30;2.10;;;14.90;1.00;;;;;;5024533;28;20214;-87
2022/06/18 00:43:42;;;;;;;2.90;2.63;;;14.90;1.00;;;;;;5024673;28;20183;-88
2022/06/18 00:46:19;;;;;;;4.18;2.45;;;14.80;1.00;;;;;;5016497;28;20293;-88
2022/06/18 00:48:55;;;;;;;5.13;2.78;;;14.80;1.00;;;;;;5025552;28;20210;-87
2022/06/18 00:55:05;;;;;;;2.97;2.53;;;14.70;1.00;;;;;;5025920;28;20186;-87
2022/06/18 00:57:54;;;;;;;2.70;2.50;;;14.70;1.00;;;;;;5024055;28;20178;-87
2022/06/18 01:00:27;;;;;;;3.05;2.38;;;14.60;1.00;;;;;;5025028;28;20289;-87
2022/06/18 01:02:53;;;;;;;3.85;2.78;;;14.60;1.00;;;;;;5016308;28;20189;-87
2022/06/18 01:05:24;;;;;;;3.20;2.75;;;14.50;1.00;;;;;;5024040;28;20186;-86
2022/06/18 01:07:55;;;;;;;2.50;2.35;;;14.50;1.00;;;;;;5040084;28;20179;-87
2022/06/18 01:10:35;;;;;;;3.13;2.40;;;14.50;1.00;;;;;;5016525;28;20781;-86
2022/06/18 01:13:04;;;;;;;3.15;2.67;;;14.50;1.00;;;;;;5024060;28;20175;-88
2022/06/18 01:15:31;;;;;;;3.05;2.65;;;14.50;1.00;;;;;;5025109;28;20174;-87
2022/06/18 01:18:11;;;;;;;2.70;2.25;;;14.40;1.00;;;;;;5040969;28;20202;-87
2022/06/18 01:21:01;;;;;;;2.50;2.25;;;14.40;1.00;;;;;;5023981;28;20737;-87
2022/06/18 01:23:39;;;;;;;2.72;2.53;;;14.50;1.00;;;;;;5019014;28;20179;-87
2022/06/18 01:26:06;;;;;;;3.05;2.22;;;14.40;1.00;;;;;;5025569;28;20194;-87
2022/06/18 01:28:32;;;;;;;3.63;2.30;;;14.40;1.00;;;;;;5025431;28;20182;-86
2022/06/18 01:30:57;;;;;;;2.40;2.13;;;14.40;1.00;;;;;;5021214;28;20714;-87
2022/06/18 01:33:24;;;;;;;3.00;2.15;;;14.30;1.00;;;;;;5019557;28;20222;-87
2022/06/18 01:35:54;;;;;;;2.47;2.15;;;14.30;1.00;;;;;;5017958;28;20240;-87
2022/06/18 01:38:21;;;;;;;2.58;2.38;;;14.30;1.00;;;;;;5020523;28;20543;-88
2022/06/18 01:41:49;;;;;;;2.53;2.33;;;14.30;1.00;;;;;;5018533;28;20261;-87
2022/06/18 01:43:48;;;;;;;2.50;2.30;;;14.30;1.00;;;;;;5020678;28;20182;-88
2022/06/18 01:46:14;;;;;;;2.63;2.42;;;14.30;1.00;;;;;;5018896;28;20186;-87
2022/06/18 01:48:42;;;;;;;3.20;2.53;;;14.30;1.00;;;;;;5019242;28;20197;-87
2022/06/18 01:51:16;;;;;;;3.42;1.90;;;14.30;1.00;;;;;;5034577;28;20210;-88
2022/06/18 01:53:48;;;;;;;2.30;2.10;;;14.30;1.00;;;;;;5018685;28;20175;-88
2022/06/18 01:56:17;;;;;;;2.97;2.55;;;14.20;1.00;;;;;;5018516;28;20193;-86
2022/06/18 01:59:15;;;;;;;2.50;2.30;;;14.20;1.00;;;;;;5011532;28;20194;-88
2022/06/18 02:01:44;;;;;;;3.50;2.35;;;14.20;1.00;;;;;;5025920;28;20215;-88
2022/06/18 02:04:13;;;;;;;4.65;2.15;;;14.20;1.00;;;;;;5023261;28;20552;-87
2022/06/18 02:06:42;;;;;;;2.92;2.30;;;14.10;1.00;;;;;;5022957;28;20373;-87
2022/06/18 02:09:39;;;;;;;2.65;1.98;;;14.10;1.00;;;;;;5020932;28;20650;-88
2022/06/18 02:12:15;;;;;;;2.40;2.20;;;14.10;1.00;;;;;;5020627;28;20183;-88
2022/06/18 02:14:47;;;;;;;3.67;2.47;;;14.00;1.00;;;;;;5024822;28;20240;-87
2022/06/18 02:17:17;;;;;;;2.33;2.13;;;14.00;1.00;;;;;;5024596;28;20179;-87
2022/06/18 02:20:19;;;;;;;2.28;1.90;;;13.90;1.00;;;;;;5026942;28;20182;-88
2022/06/18 02:22:49;;;;;;;4.47;1.90;;;14.00;1.00;;;;;;4976898;28;20188;-87
2022/06/18 02:25:17;;;;;;;2.30;2.10;;;14.00;1.00;;;;;;5015120;28;20214;-87
2022/06/18 02:27:44;;;;;;;2.83;2.25;;;14.00;1.00;;;;;;5027738;28;20321;-88
2022/06/18 02:30:23;;;;;;;2.35;2.15;;;13.90;1.00;;;;;;5026742;28;20684;-87
2022/06/18 02:33:13;;;;;;;2.30;2.10;;;13.90;1.00;;;;;;5027303;28;20182;-87
2022/06/18 02:35:39;;;;;;;2.15;2.00;;;13.90;1.00;;;;;;5029038;28;20213;-87
2022/06/18 02:38:31;;;;;;;2.55;2.03;;;13.90;1.00;;;;;;5027134;28;20651;-88
2022/06/18 02:40:57;;;;;;;1.90;1.80;;;14.00;1.00;;;;;;5026198;28;20229;-87
2022/06/18 02:43:32;;;;;;;2.58;1.73;;;14.00;1.00;;;;;;5027149;28;20838;-87
2022/06/18 02:46:02;;;;;;;2.40;2.20;;;13.90;1.00;;;;;;5025899;28;20174;-87
2022/06/18 02:48:31;;;;;;;4.32;2.00;;;13.90;1.00;;;;;;5028891;28;21130;-87
2022/06/18 02:50:58;;;;;;;2.17;1.95;;;14.00;1.00;;;;;;5018873;28;20330;-87
2022/06/18 02:53:25;;;;;;;2.55;2.35;;;14.00;1.00;;;;;;5027126;28;20286;-86
2022/06/18 02:55:58;;;;;;;2.10;1.90;;;14.00;1.00;;;;;;5029344;28;20240;-87
2022/06/18 02:58:34;;;;;;;3.05;2.05;;;13.90;1.00;;;;;;5026255;28;20179;-87
2022/06/18 03:01:08;;;;;;;2.38;2.00;;;13.90;1.00;;;;;;5027600;28;20245;-87
2022/06/18 03:03:38;;;;;;;2.35;2.15;;;13.90;1.00;;;;;;5026820;28;20186;-86
2022/06/18 03:06:11;;;;;;;2.53;2.10;;;13.90;1.00;;;;;;5026198;28;20201;-87
2022/06/18 03:08:38;;;;;;;2.60;1.80;;;13.90;1.00;;;;;;5026826;28;20183;-87
2022/06/18 03:13:54;;;;;;;3.17;2.38;;;14.00;1.00;;;;;;5028378;28;20205;-87
2022/06/18 03:16:22;;;;;;;1.73;1.60;;;13.90;1.00;;;;;;5028560;28;20698;-87
2022/06/18 03:18:50;;;;;;;2.60;2.10;;;14.00;1.00;;;;;;5042459;28;20644;-87
2022/06/18 03:21:42;;;;;;;2.13;1.90;;;14.10;1.00;;;;;;5026318;28;20633;-87
2022/06/18 03:24:09;;;;;;;1.88;1.77;;;14.10;1.00;;;;;;5026034;28;20266;-88
2022/06/18 03:26:37;;;;;;;2.17;2.00;;;14.10;1.00;;;;;;5041896;28;20214;-86
2022/06/18 03:29:05;;;;;;;1.73;1.63;;;14.20;1.00;;;;;;5043315;28;20237;-87
2022/06/18 03:31:31;;;;;;;2.00;1.70;;;14.20;1.00;;;;;;5025453;28;20745;-87
2022/06/18 03:33:57;;;;;;;3.45;1.80;;;14.30;1.00;;;;;;5025843;28;20183;-87
2022/06/18 03:36:27;;;;;;;2.15;1.80;;;14.30;1.00;;;;;;5027069;28;20185;-87
2022/06/18 03:38:53;;;;;;;2.53;2.08;;;14.40;1.00;;;;;;5030702;28;20222;-85
2022/06/18 03:41:20;;;;;;;2.22;1.45;;;14.50;1.00;;;;;;5011688;28;20218;-86
2022/06/18 03:43:46;;;;;;;2.83;1.80;;;14.50;1.00;;;;;;5044853;28;20668;-85
2022/06/18 03:46:14;;;;;;;1.73;1.63;;;14.60;1.00;;;;;;5028036;28;20186;-86
2022/06/18 03:49:03;;;;;;;1.50;1.40;;;14.60;1.00;;;;;;5019559;28;20481;-85
2022/06/18 03:51:30;;;;;;;2.85;1.77;;;14.70;1.00;;;;;;5029105;28;20253;-86
2022/06/18 03:53:57;;;;;;;2.55;1.70;;;14.80;1.00;;;;;;5022304;28;20260;-86
2022/06/18 03:56:28;;;;;;;1.60;1.50;;;14.90;1.00;;;;;;5042808;28;20186;-86
2022/06/18 03:58:55;;;;;;;2.45;1.40;;;14.90;1.00;;;;;;5028524;28;20175;-86
2022/06/18 04:01:29;;;;;;;1.98;1.60;;;14.90;1.00;;;;;;5045262;28;20209;-87
2022/06/18 04:03:54;;;;;;;1.77;1.27;;;15.00;1.00;;;;;;5011486;28;20194;-87
2022/06/18 04:06:20;;;;;;;1.70;1.60;;;15.10;1.00;;;;;;5013948;28;20183;-86
2022/06/18 04:08:46;;;;;;;2.10;1.50;;;15.10;1.00;;;;;;5028867;28;20195;-86
2022/06/18 04:11:12;;;;;;;1.83;1.60;;;15.30;1.00;;;;;;5028114;28;20203;-86
2022/06/18 04:13:40;;;;;;;1.83;1.67;;;15.40;1.00;;;;;;5027649;28;20183;-87
2022/06/18 04:16:06;;;;;;;2.38;1.45;;;15.40;1.00;;;;;;5026551;28;20178;-86
2022/06/18 04:18:32;;;;;;;2.13;1.65;;;15.60;1.00;;;;;;5026338;28;20179;-87
2022/06/18 04:20:58;;;;;;;2.08;1.40;;;15.70;1.00;;;;;;5026502;28;20209;-86
2022/06/18 04:23:26;;;;;;;1.60;1.50;;;15.80;1.00;;;;;;5026541;28;20198;-86
2022/06/18 04:25:55;;;;;;;1.88;1.52;;;15.90;1.00;;;;;;5026246;28;20264;-86
2022/06/18 04:28:21;;;;;;;2.17;1.40;;;16.10;1.00;;;;;;5009167;28;20191;-87
2022/06/18 04:30:47;;;;;;;2.10;1.38;;;16.20;1.00;;;;;;5025660;28;20819;-86
2022/06/18 04:33:13;;;;;;;1.85;1.50;;;16.30;1.00;;;;;;5025503;28;20187;-86
2022/06/18 04:35:39;;;;;;;2.20;1.40;;;16.50;1.00;;;;;;5026989;28;20306;-86
2022/06/18 04:38:05;;;;;;;1.33;1.20;;;16.70;1.00;;;;;;5026139;28;20293;-86
2022/06/18 04:40:32;;;;;;;4.65;1.60;;;16.80;1.00;;;;;;5024849;28;20253;-88
2022/06/18 04:43:03;;;;;;;1.80;1.38;;;17.00;1.00;;;;;;5026290;28;20187;-88
2022/06/18 04:45:29;;;;;;;2.88;1.42;;;17.10;1.00;;;;;;5042012;28;20660;-86
2022/06/18 04:47:56;;;;;;;1.67;1.50;;;17.30;1.00;;;;;;5025645;28;20187;-86
2022/06/18 04:50:24;;;;;;;1.42;1.33;;;17.50;1.00;;;;;;5025318;28;20211;-85
2022/06/18 04:52:50;;;;;;;2.25;1.17;;;17.70;1.00;;;;;;5024938;28;20185;-87
2022/06/18 04:55:16;;;;;;;1.85;1.20;;;18.00;1.00;;;;;;5009453;28;20195;-86
2022/06/18 04:57:41;;;;;;;2.10;1.15;;;18.50;1.00;;;;;;5025693;28;20179;-87
2022/06/18 05:00:10;;;;;;;1.23;1.15;;;19.70;99.90;;;;;;5026475;28;20294;-87
2022/06/18 05:02:36;;;;;;;1.23;1.13;;;;;;;;;;5025889;28;20274;-88
2022/06/18 05:05:07;;;;;;;1.40;1.05;;;;;;;;;;5024853;28;20183;-86
2022/06/18 05:07:35;;;;;;;1.73;0.80;;;21.30;11.60;;;;;;5018368;28;20567;-86
2022/06/18 05:10:01;;;;;;;2.72;1.30;;;25.40;1.00;;;;;;5026380;28;20619;-86
2022/06/18 05:12:26;;;;;;;0.90;0.90;;;26.50;99.90;;;;;;5025984;28;20252;-86
2022/06/18 05:14:52;;;;;;;0.90;0.90;;;27.60;99.90;;;;;;5024925;28;20178;-86
2022/06/18 05:17:27;;;;;;;1.05;0.95;;;28.50;99.90;;;;;;5024697;28;20652;-89
2022/06/18 05:19:52;;;;;;;1.13;1.02;;;28.90;82.30;;;;;;5024414;28;20233;-89
2022/06/18 05:22:18;;;;;;;2.42;1.00;;;29.30;25.00;;;;;;5027874;28;20814;-89
2022/06/18 05:24:44;;;;;;;0.80;0.80;;;29.90;1.00;;;;;;5024128;28;20195;-87
2022/06/18 05:27:25;;;;;;;1.00;0.90;;;30.50;1.00;;;;;;5024294;28;20205;-86
2022/06/18 05:29:51;;;;;;;1.88;1.33;;;30.70;1.00;;;;;;5025155;28;20214;-87
2022/06/18 05:32:16;;;;;;;1.27;1.17;;;31.10;1.00;;;;;;5025575;28;20187;-87
2022/06/18 05:34:42;;;;;;;1.10;1.00;;;31.70;1.00;;;;;;5026031;28;20185;-86
2022/06/18 05:37:13;;;;;;;1.88;1.05;;;32.10;1.00;;;;;;5024090;28;20218;-87
2022/06/18 05:39:41;;;;;;;2.08;1.20;;;32.40;1.00;;;;;;5025492;28;20267;-87
2022/06/18 05:42:07;;;;;;;1.55;1.13;;;32.50;1.00;;;;;;5026080;28;20183;-86
2022/06/18 05:44:33;;;;;;;0.85;0.85;;;32.90;1.00;;;;;;5026236;28;20790;-88
2022/06/18 05:46:59;;;;;;;1.27;1.17;;;33.10;1.00;;;;;;5024922;28;20187;-86
2022/06/18 05:49:24;;;;;;;1.30;1.20;;;33.40;1.00;;;;;;5025506;28;20210;-86
2022/06/18 05:51:50;;;;;;;1.75;1.23;;;33.90;1.00;;;;;;5026797;28;20218;-87
2022/06/18 05:54:15;;;;;;;1.23;1.20;;;34.00;1.00;;;;;;5027415;28;20175;-87
2022/06/18 05:56:41;;;;;;;1.88;1.50;;;34.20;1.00;;;;;;5029742;28;20643;-86
2022/06/18 05:59:12;;;;;;;1.50;1.20;;;34.50;1.00;;;;;;5026118;28;20191;-87
2022/06/18 06:01:38;;;;;;;1.20;1.20;;;34.40;1.00;;;;;;5028837;28;20833;-86
2022/06/18 06:04:04;;;;;;;2.28;1.30;;;34.70;1.00;;;;;;5028251;28;20201;-86
2022/06/18 06:06:29;;;;;;;1.38;1.15;;;34.60;1.00;;;;;;5028915;28;20190;-86
2022/06/18 06:08:55;;;;;;;1.40;1.30;;;34.60;1.00;;;;;;5028831;28;20644;-87
2022/06/18 06:11:30;;;;;;;1.30;1.10;;;34.60;1.00;;;;;;5030473;28;20272;-86
2022/06/18 06:13:57;;;;;;;1.13;1.10;;;34.50;1.00;;;;;;5025641;28;20206;-86
2022/06/18 06:16:23;;;;;;;2.05;1.10;;;34.50;1.00;;;;;;5029783;28;20209;-86
2022/06/18 06:18:49;;;;;;;1.33;1.20;;;34.80;1.00;;;;;;5026895;28;20341;-86
2022/06/18 06:21:15;;;;;;;1.50;1.40;;;34.90;1.00;;;;;;5020600;28;20302;-85
2022/06/18 06:23:42;;;;;;;1.20;1.10;;;35.20;1.00;;;;;;5028898;28;20221;-85
2022/06/18 06:26:17;;;;;;;1.65;1.10;;;35.30;1.00;;;;;;5029387;28;20186;-85
2022/06/18 06:28:43;;;;;;;1.40;1.30;;;35.40;1.00;;;;;;5030775;28;20229;-85
2022/06/18 06:31:09;;;;;;;1.60;1.10;;;35.40;1.00;;;;;;5031068;28;20277;-85
2022/06/18 06:33:35;;;;;;;1.35;1.25;;;35.30;1.00;;;;;;5014649;28;20272;-85
2022/06/18 06:36:05;;;;;;;1.40;1.30;;;35.40;1.00;;;;;;5027952;28;20560;-85
2022/06/18 06:38:32;;;;;;;1.52;1.42;;;35.70;1.00;;;;;;5031962;28;20179;-85
2022/06/18 06:40:59;;;;;;;1.50;1.40;;;36.00;1.00;;;;;;5031057;28;20738;-86
2022/06/18 06:43:25;;;;;;;1.50;1.40;;;35.90;1.00;;;;;;5031084;28;20179;-86
2022/06/18 06:45:51;;;;;;;2.08;1.38;;;36.30;1.00;;;;;;5028605;28;20206;-86
2022/06/18 06:48:17;;;;;;;1.48;1.27;;;36.40;1.00;;;;;;5029437;28;20312;-86
2022/06/18 06:50:50;;;;;;;1.58;1.48;;;35.90;1.00;;;;;;5023994;28;20233;-86
2022/06/18 06:53:16;;;;;;;1.70;1.60;;;35.40;1.00;;;;;;5027203;28;20210;-86
2022/06/18 06:58:26;;;;;;;1.20;1.20;;;34.60;1.00;;;;;;5026247;28;20476;-85
2022/06/18 07:00:55;;;;;;;1.60;1.50;;;34.60;1.00;;;;;;5011579;28;20214;-87
2022/06/18 07:03:27;;;;;;;1.70;1.58;;;34.50;1.00;;;;;;5026421;28;20183;-87
2022/06/18 07:05:53;;;;;;;1.60;1.50;;;34.70;1.00;;;;;;5020292;28;20195;-88
2022/06/18 07:08:19;;;;;;;3.83;1.60;;;34.80;1.00;;;;;;5016260;28;20684;-88
2022/06/18 07:10:48;;;;;;;1.88;1.70;;;34.90;1.00;;;;;;5017301;28;20332;-87
2022/06/18 07:13:14;;;;;;;2.22;1.70;;;34.70;1.00;;;;;;5022126;28;20630;-88
2022/06/18 07:15:40;;;;;;;4.90;1.95;;;34.70;1.00;;;;;;5021781;28;20278;-88
2022/06/18 07:18:14;;;;;;;1.75;1.63;;;34.40;1.00;;;;;;5021781;28;20183;-88
2022/06/18 07:20:39;;;;;;;2.08;1.90;;;34.10;1.00;;;;;;5021943;28;20241;-88
2022/06/18 07:23:05;;;;;;;1.95;1.70;;;34.00;1.00;;;;;;5021682;28;20266;-88
2022/06/18 07:25:31;;;;;;;2.03;1.80;;;34.40;1.00;;;;;;5020407;28;20582;-88
2022/06/18 07:27:56;;;;;;;1.80;1.70;;;33.90;1.00;;;;;;5020910;28;20194;-89
2022/06/18 07:30:22;;;;;;;2.08;1.67;;;33.50;1.00;;;;;;5021143;28;20214;-87
2022/06/18 07:32:49;;;;;;;1.90;1.70;;;32.70;1.00;;;;;;5022169;28;20185;-87
2022/06/18 07:35:19;;;;;;;2.10;1.90;;;31.80;1.00;;;;;;5021679;28;20183;-87
2022/06/18 07:37:45;;;;;;;2.33;2.13;;;30.80;1.00;;;;;;5020932;28;20183;-87
2022/06/18 07:40:11;;;;;;;2.83;1.88;;;30.00;1.00;;;;;;5021737;28;20252;-89
2022/06/18 07:42:37;;;;;;;2.78;1.95;;;29.60;1.00;;;;;;5026899;28;20187;-89
2022/06/18 07:45:05;;;;;;;2.15;1.83;;;29.20;1.00;;;;;;5026512;28;20203;-88
2022/06/18 07:47:30;;;;;;;2.20;2.00;;;28.90;1.00;;;;;;5020135;28;20400;-87
2022/06/18 07:49:56;;;;;;;3.03;1.92;;;28.80;1.00;;;;;;5021208;28;20770;-88
2022/06/18 07:52:21;;;;;;;2.85;2.30;;;28.70;1.00;;;;;;5019366;28;20191;-87
2022/06/18 07:54:47;;;;;;;2.40;2.20;;;28.60;1.00;;;;;;5021107;28;20288;-88
2022/06/18 07:57:13;;;;;;;2.13;1.95;;;28.50;1.00;;;;;;5019104;28;20183;-88
2022/06/18 07:59:38;;;;;;;2.38;2.10;;;28.40;1.00;;;;;;5020004;28;20206;-87
2022/06/18 08:02:06;;;;;;;2.35;1.80;;;28.30;1.00;;;;;;5019404;28;20274;-87
2022/06/18 08:04:32;;;;;;;3.58;2.10;;;28.30;1.00;;;;;;5036538;28;20540;-87
2022/06/18 08:06:58;;;;;;;2.30;2.10;;;28.10;1.00;;;;;;5020034;28;20237;-87
2022/06/18 08:09:24;;;;;;;2.75;2.00;;;27.90;1.00;;;;;;5020066;28;20211;-87
2022/06/18 08:11:50;;;;;;;2.22;2.00;;;27.80;1.00;;;;;;5021400;28;20209;-88
2022/06/18 08:14:16;;;;;;;2.97;2.20;;;27.60;1.00;;;;;;5021847;28;20179;-87
2022/06/18 08:16:46;;;;;;;3.53;2.03;;;27.50;1.00;;;;;;5020682;28;20183;-87
2022/06/18 08:19:12;;;;;;;2.30;2.10;;;27.30;1.00;;;;;;5021321;28;20217;-87
2022/06/18 08:21:41;;;;;;;4.20;2.10;;;27.30;1.00;;;;;;5020289;28;20434;-86
2022/06/18 08:24:12;;;;;;;2.75;1.92;;;27.30;1.00;;;;;;5020432;28;20629;-87
2022/06/18 08:26:40;;;;;;;2.65;2.00;;;27.30;1.00;;;;;;5019124;28;20194;-87
2022/06/18 08:29:08;;;;;;;3.05;1.90;;;27.40;1.00;;;;;;5019629;28;20199;-88
2022/06/18 08:31:34;;;;;;;2.58;1.80;;;27.50;1.00;;;;;;5022115;28;20198;-87
2022/06/18 08:33:59;;;;;;;2.25;2.08;;;27.50;1.00;;;;;;5021407;28;20289;-86
2022/06/18 08:36:26;;;;;;;2.63;2.25;;;27.50;1.00;;;;;;5020220;28;20241;-87
2022/06/18 08:38:52;;;;;;;2.80;2.13;;;27.50;1.00;;;;;;5019359;28;20206;-86
2022/06/18 08:41:30;;;;;;;2.33;2.05;;;27.60;1.00;;;;;;5018321;28;20763;-86
2022/06/18 08:44:14;;;;;;;2.10;1.92;;;27.60;1.00;;;;;;5019475;28;20186;-86
2022/06/18 08:47:03;;;;;;;3.38;2.20;;;27.60;1.00;;;;;;5018692;28;20210;-86
2022/06/18 08:49:38;;;;;;;2.38;2.15;;;27.70;1.00;;;;;;5018214;28;20741;-86
2022/06/18 08:52:35;;;;;;;3.00;2.22;;;27.70;1.00;;;;;;5018731;28;20182;-86
2022/06/18 08:55:06;;;;;;;2.67;2.28;;;27.60;1.00;;;;;;5019543;28;20182;-87
2022/06/18 08:57:42;;;;;;;5.15;2.58;;;27.50;1.00;;;;;;5019243;28;20737;-86
2022/06/18 09:00:12;;;;;;;5.72;2.45;;;27.50;1.00;;;;;;5020422;28;20722;-87
2022/06/18 09:02:47;;;;;;;10.30;3.08;;;27.50;1.00;;;;;;5019486;28;20494;-86
2022/06/18 09:05:49;;;;;;;3.08;2.42;;;27.50;1.00;;;;;;5020566;28;20698;-86
2022/06/18 09:08:51;;;;;;;8.82;3.30;;;27.70;1.00;;;;;;5019802;28;20186;-86
2022/06/18 09:11:31;;;;;;;3.33;2.58;;;27.80;1.00;;;;;;5019774;28;20205;-86
2022/06/18 09:14:07;;;;;;;3.38;2.83;;;27.70;1.00;;;;;;5035335;28;20174;-87
2022/06/18 09:16:49;;;;;;;3.17;2.40;;;27.80;1.00;;;;;;5011870;28;20186;-85
2022/06/18 09:19:19;;;;;;;2.70;2.28;;;27.80;1.00;;;;;;5020635;28;20193;-85
2022/06/18 09:21:57;;;;;;;4.47;3.03;;;27.80;1.00;;;;;;5013696;28;20222;-87
2022/06/18 09:24:40;;;;;;;5.68;3.67;;;27.90;1.00;;;;;;5022232;28;20526;-86
2022/06/18 09:27:10;;;;;;;13.25;10.68;;;27.90;1.00;;;;;;5023170;28;20206;-86
2022/06/18 09:29:45;;;;;;;3.50;2.90;;;27.90;1.00;;;;;;5025572;28;20805;-86
2022/06/18 09:32:38;;;;;;;5.45;3.17;;;27.90;1.00;;;;;;5022813;28;20186;-86
2022/06/18 09:35:14;;;;;;;5.55;2.75;;;27.90;1.00;;;;;;5024966;28;20174;-86
2022/06/18 09:37:47;;;;;;;2.97;2.60;;;28.00;1.00;;;;;;5023984;28;20747;-87
2022/06/18 09:40:23;;;;;;;4.30;2.80;;;28.00;1.00;;;;;;5023082;28;20211;-88
2022/06/18 09:42:58;;;;;;;9.73;4.63;;;28.10;1.00;;;;;;5025613;28;20741;-88
2022/06/18 09:45:31;;;;;;;3.15;2.50;;;28.20;1.00;;;;;;5024051;28;20221;-88
2022/06/18 09:47:57;;;;;;;3.42;2.47;;;28.20;1.00;;;;;;5023801;28;20205;-86
2022/06/18 09:50:47;;;;;;;5.93;3.78;;;28.10;1.00;;;;;;5022787;28;20685;-85
2022/06/18 09:53:37;;;;;;;5.75;3.20;;;28.20;1.00;;;;;;5022872;28;20703;-87
2022/06/18 09:56:07;;;;;;;3.78;3.20;;;28.30;1.00;;;;;;5022928;28;20178;-85
2022/06/18 09:58:44;;;;;;;3.30;2.78;;;28.40;1.00;;;;;;5023110;28;20179;-87
2022/06/18 10:01:18;;;;;;;5.03;2.70;;;28.40;1.00;;;;;;5039117;28;20207;-86
2022/06/18 10:06:55;;;;;;;4.18;3.03;;;28.40;1.00;;;;;;5024915;28;20217;-85
2022/06/18 10:09:53;;;;;;;4.25;2.47;;;28.40;1.00;;;;;;5023056;28;20229;-86
2022/06/18 10:12:26;;;;;;;3.28;2.85;;;28.60;1.00;;;;;;5016008;28;20645;-87
2022/06/18 10:14:55;;;;;;;9.07;3.60;;;28.70;1.00;;;;;;5014048;28;20183;-85
2022/06/18 10:18:09;;;;;;;3.65;3.13;;;28.70;1.00;;;;;;5013661;28;20187;-86
2022/06/18 10:20:43;;;;;;;4.70;3.08;;;28.70;1.00;;;;;;4958831;28;20703;-91
2022/06/18 10:23:47;;;;;;;4.97;3.47;;;28.70;1.00;;;;;;5019360;28;20552;-86
2022/06/18 10:26:38;;;;;;;4.97;4.35;;;28.70;1.00;;;;;;5017081;28;20198;-87
2022/06/18 10:29:22;;;;;;;6.22;4.05;;;28.90;1.00;;;;;;5021979;28;20968;-87
2022/06/18 10:32:10;;;;;;;7.43;4.70;;;29.00;1.00;;;;;;5013793;28;20565;-89
2022/06/18 10:35:00;;;;;;;4.63;3.50;;;29.20;1.00;;;;;;5021888;28;20592;-88
2022/06/18 10:37:31;;;;;;;5.93;3.30;;;29.30;1.00;;;;;;5024133;28;20264;-86
2022/06/18 10:40:11;;;;;;;3.97;2.90;;;29.40;1.00;;;;;;5016272;28;20238;-85
2022/06/18 10:42:53;;;;;;;6.53;5.85;;;29.50;1.00;;;;;;5020508;28;20556;-86
2022/06/18 10:45:32;;;;;;;6.30;5.03;;;29.50;1.00;;;;;;5014182;28;20558;-87
2022/06/18 10:47:58;;;;;;;6.88;3.28;;;29.60;1.00;;;;;;5021876;28;20724;-86
2022/06/18 10:50:24;;;;;;;4.38;3.55;;;29.50;1.00;;;;;;5022074;28;20222;-87
2022/06/18 10:53:02;;;;;;;5.63;3.20;;;29.60;1.00;;;;;;5021688;28;20528;-86
2022/06/18 10:55:28;;;;;;;3.65;3.20;;;29.70;1.00;;;;;;5024050;28;20178;-86
2022/06/18 10:58:05;;;;;;;5.63;3.40;;;29.80;1.00;;;;;;5021882;28;20183;-87
2022/06/18 11:00:30;;;;;;;4.30;3.70;;;29.80;1.00;;;;;;5039239;28;20566;-86
2022/06/18 11:02:59;;;;;;;6.00;5.40;;;29.90;1.00;;;;;;5022670;28;20274;-86
2022/06/18 11:05:38;;;;;;;5.00;3.55;;;30.00;1.00;;;;;;5021502;28;20481;-86
2022/06/18 11:08:19;;;;;;;4.95;3.55;;;30.10;1.00;;;;;;5022798;28;20178;-85
2022/06/18 11:10:53;;;;;;;3.42;2.92;;;30.10;1.00;;;;;;5022054;28;20245;-87
2022/06/18 11:13:29;;;;;;;4.28;3.30;;;30.10;1.00;;;;;;5022041;28;20755;-86
2022/06/18 11:16:25;;;;;;;4.65;3.22;;;30.30;1.00;;;;;;5021801;28;20185;-88
2022/06/18 11:18:52;;;;;;;3.78;3.28;;;30.40;1.00;;;;;;5020156;28;20183;-87
2022/06/18 11:21:44;;;;;;;5.25;3.60;;;30.50;1.00;;;;;;5023696;28;20349;-87
2022/06/18 11:24:15;;;;;;;5.68;3.28;;;30.60;1.00;;;;;;5018000;28;20571;-86
2022/06/18 11:26:50;;;;;;;7.03;3.40;;;30.70;1.00;;;;;;5023167;28;20297;-87
2022/06/18 11:29:41;;;;;;;7.05;3.50;;;30.70;1.00;;;;;;5018193;28;20218;-86
2022/06/18 11:32:16;;;;;;;7.25;3.90;;;30.80;1.00;;;;;;5012112;28;20535;-87
2022/06/18 11:34:49;;;;;;;6.90;3.45;;;30.70;1.00;;;;;;5020822;28;20187;-86
2022/06/18 11:37:26;;;;;;;7.68;4.15;;;30.70;1.00;;;;;;5021741;28;20716;-87
2022/06/18 11:39:58;;;;;;;5.68;4.18;;;30.60;1.00;;;;;;5020672;28;20202;-86
2022/06/18 11:42:57;;;;;;;7.70;6.82;;;30.60;1.00;;;;;;5022953;28;20655;-89
2022/06/18 11:45:35;;;;;;;6.47;3.53;;;30.60;1.00;;;;;;5023582;28;20224;-87
2022/06/18 11:48:08;;;;;;;8.75;3.40;;;30.70;1.00;;;;;;5021409;28;20186;-86
2022/06/18 11:50:44;;;;;;;6.25;3.90;;;30.70;1.00;;;;;;5016038;28;20481;-86
2022/06/18 11:53:23;;;;;;;18.75;16.58;;;30.70;1.00;;;;;;5022886;28;20178;-86
2022/06/18 11:55:55;;;;;;;7.65;4.60;;;30.70;1.00;;;;;;5020966;28;20196;-86
2022/06/18 11:58:33;;;;;;;7.30;4.65;;;30.70;1.00;;;;;;5022464;28;20175;-87
2022/06/18 12:01:06;;;;;;;8.90;3.78;;;30.70;1.00;;;;;;5015029;28;20327;-87
2022/06/18 12:03:38;;;;;;;5.55;3.42;;;30.70;1.00;;;;;;5019595;28;20179;-88
2022/06/18 12:06:19;;;;;;;6.25;4.75;;;30.80;1.00;;;;;;5020660;28;20175;-86
2022/06/18 12:08:45;;;;;;;6.28;4.10;;;30.80;1.00;;;;;;5025287;28;20193;-84
2022/06/18 12:11:16;;;;;;;7.15;3.75;;;30.90;1.00;;;;;;5023242;28;20218;-86
2022/06/18 12:14:02;;;;;;;6.90;3.90;;;30.90;1.00;;;;;;5025452;28;20548;-86
2022/06/18 12:16:36;;;;;;;8.48;4.00;;;31.00;1.00;;;;;;5041069;28;20558;-86
2022/06/18 12:19:24;;;;;;;6.53;3.72;;;31.10;1.00;;;;;;5023371;28;20624;-86
2022/06/18 12:21:58;;;;;;;6.22;3.80;;;31.00;1.00;;;;;;5025660;28;20206;-86
2022/06/18 12:24:44;;;;;;;5.32;3.72;;;31.00;1.00;;;;;;5042095;28;20174;-86
2022/06/18 12:27:18;;;;;;;6.13;3.45;;;31.10;1.00;;;;;;5025329;28;20202;-86
2022/06/18 12:30:10;;;;;;;5.85;3.72;;;31.20;1.00;;;;;;5024422;28;20253;-86
2022/06/18 12:33:16;;;;;;;12.52;10.30;;;31.20;1.00;;;;;;5024979;28;20179;-88
2022/06/18 12:36:15;;;;;;;8.77;4.88;;;31.20;1.00;;;;;;5015841;28;20266;-86
2022/06/18 12:39:02;;;;;;;9.18;4.50;;;31.10;1.00;;;;;;4997125;28;20191;-86
2022/06/18 12:41:50;;;;;;;8.55;3.75;;;31.20;1.00;;;;;;5025426;28;20195;-86
2022/06/18 12:44:31;;;;;;;6.88;3.97;;;31.30;1.00;;;;;;5024650;28;20217;-87
2022/06/18 12:47:24;;;;;;;7.03;3.60;;;31.40;1.00;;;;;;5015870;28;20632;-86
2022/06/18 12:50:11;;;;;;;6.28;4.07;;;31.40;1.00;;;;;;5015782;28;20260;-86
2022/06/18 12:52:45;;;;;;;7.70;4.15;;;31.50;1.00;;;;;;5040722;28;20229;-86
2022/06/18 12:55:32;;;;;;;6.53;4.22;;;31.50;1.00;;;;;;5023807;28;20174;-85
2022/06/18 12:58:04;;;;;;;8.00;4.00;;;31.50;1.00;;;;;;5024852;28;20190;-85
2022/06/18 13:00:56;;;;;;;8.90;6.68;;;31.70;1.00;;;;;;5024090;28;20207;-85
2022/06/18 13:03:21;;;;;;;5.47;3.92;;;31.50;1.00;;;;;;5017400;28;20194;-86
2022/06/18 13:05:57;;;;;;;6.78;4.32;;;31.60;1.00;;;;;;5023382;28;20194;-85
2022/06/18 13:08:50;;;;;;;7.07;4.00;;;31.50;1.00;;;;;;5023099;28;20197;-86
2022/06/18 13:11:37;;;;;;;7.78;4.28;;;31.50;1.00;;;;;;5023945;28;20560;-86
2022/06/18 13:14:44;;;;;;;5.82;3.60;;;31.50;1.00;;;;;;5015651;28;20182;-85
2022/06/18 13:17:21;;;;;;;9.07;6.13;;;31.60;1.00;;;;;;5024729;28;20183;-85
2022/06/18 13:19:57;;;;;;;7.38;4.70;;;31.50;1.00;;;;;;5023934;28;20182;-86
2022/06/18 13:22:23;;;;;;;7.70;4.38;;;31.60;1.00;;;;;;5023405;28;20182;-86
2022/06/18 13:28:10;;;;;;;6.10;3.67;;;31.90;1.00;;;;;;5025619;28;20198;-86
2022/06/18 13:31:00;;;;;;;5.72;4.03;;;32.00;1.00;;;;;;5023632;28;20237;-86
2022/06/18 13:33:44;;;;;;;5.70;3.92;;;32.20;1.00;;;;;;5024548;28;20201;-86
2022/06/18 13:36:35;;;;;;;5.22;3.40;;;32.10;1.00;;;;;;5016710;28;20183;-86
2022/06/18 13:39:22;;;;;;;6.32;3.67;;;32.20;1.00;;;;;;5023359;28;20183;-86
2022/06/18 13:42:13;;;;;;;7.72;3.83;;;32.30;1.00;;;;;;5022746;28;20194;-86
2022/06/18 13:45:09;;;;;;;7.78;4.03;;;32.40;1.00;;;;;;5023620;28;20186;-84